Latest Weather Observations for Mandora

IDW60801

Issued at 10:34 pm WST Monday 5 December 2016 (issued every 30 minutes, with the page automatically refreshed every 10 minutes)

About weather observations | Map of weather stations | Latest weather observations for WA | Other Formats
Station Details ID: 004019 Name: MANDORA Lat: -19.74 Lon: 120.84 Height: 7.5 m
Data from the previous 72 hours. | See also: Recent months at Mandora
Date/Time
WST
Temp
°C
App
Temp
°C
Dew
Point
°C
Rel
Hum
%
Delta-T
°C
Wind Press
QNH
hPa
Press
MSL
hPa
Rain since
9am
mm
Dir  Spd
km/h
Gust
km/h
Spd
kts
Gust
kts
05/10:30pm 25.8 29.2 22.7 83 2.1 NE 9 11 5 6 1009.3 1009.2 0.2
05/10:00pm 26.0 29.9 22.9 83 2.1 NE 7 11 4 6 1009.5 1009.4 0.2
05/09:30pm 26.2 30.0 22.7 81 2.4 NE 7 9 4 5 1009.6 1009.5 0.2
05/09:00pm 26.4 31.6 22.9 81 2.4 CALM 0 0 0 0 1009.5 1009.4 0.2
05/08:30pm 26.6 30.7 22.9 80 2.5 N 6 7 3 4 1009.3 1009.2 0.2
05/08:00pm 26.9 30.9 22.7 78 2.8 N 6 7 3 4 1009.1 1009.0 0.2
05/07:30pm 27.2 31.0 22.8 77 3.0 N 7 9 4 5 1008.9 1008.8 0.2
05/07:00pm 27.6 30.9 22.5 74 3.5 NNE 9 11 5 6 1008.4 1008.3 0.2
05/06:30pm 28.2 30.3 22.4 71 3.9 N 15 20 8 11 1008.1 1008.0 0.2
05/06:00pm 28.8 30.7 22.1 67 4.5 N 15 20 8 11 1008.1 1008.0 0.2
05/05:30pm 29.4 30.8 21.9 64 5.1 N 17 24 9 13 1007.9 1007.8 0.2
05/05:00pm 29.7 30.9 22.2 64 5.1 N 19 26 10 14 1007.7 1007.6 0.2
05/04:30pm 29.6 31.4 21.8 63 5.3 NNW 15 22 8 12 1007.6 1007.5 0.2
05/04:00pm 30.1 31.4 21.7 60 5.7 NNW 17 24 9 13 1007.7 1007.6 0.2
05/03:30pm 29.8 30.7 21.5 61 5.6 NNW 19 24 10 13 1007.7 1007.6 0.2
05/03:00pm 29.9 31.1 22.1 63 5.3 NNW 19 26 10 14 1007.9 1007.8 0.2
05/02:30pm 29.7 31.1 21.9 63 5.3 N 17 22 9 12 1008.2 1008.1 0.2
05/02:00pm 29.1 31.4 22.8 69 4.3 NNW 15 22 8 12 1008.6 1008.5 0.2
05/01:30pm 29.3 31.7 23.0 69 4.3 NW 15 22 8 12 1008.5 1008.4 0.2
05/01:00pm 29.7 32.0 22.7 66 4.8 NW 15 24 8 13 1008.5 1008.4 0.2
05/12:30pm 30.2 32.6 22.9 65 5.0 NW 15 22 8 12 1008.6 1008.5 0.2
05/12:00pm 31.2 33.9 22.8 61 5.8 WNW 13 22 7 12 1008.7 1008.6 0.2
05/11:30am 30.7 33.0 22.8 62 5.4 WNW 15 22 8 12 1009.0 1008.9 0.2
05/11:00am 29.6 32.1 23.1 68 4.5 WNW 15 20 8 11 1009.5 1009.4 0.2
05/10:30am 29.4 33.5 24.0 72 3.7 W 9 17 5 9 1009.5 1009.4 0.2
05/10:00am 27.7 32.1 23.5 78 2.9 NW 6 7 3 4 1009.6 1009.5 0.2
05/09:30am 26.2 31.6 23.9 87 1.6 SSE 2 7 1 4 1009.6 1009.5 0.2
05/09:00am 25.3 29.3 23.7 91 1.1 SSW 9 11 5 6 1010.0 1009.9 3.8
05/08:30am 25.1 28.3 23.7 92 1.0 W 13 19 7 10 1010.3 1010.2 3.8
05/08:00am 25.3 28.1 23.0 87 1.6 W 13 20 7 11 1010.2 1010.1 0.4
05/07:30am 27.5 32.0 22.2 73 3.6 WSW 2 7 1 4 1009.7 1009.6 0.0
05/07:00am 26.7 30.2 21.9 75 3.2 S 6 7 3 4 1009.6 1009.5 0.0
05/06:30am 25.9 29.4 21.8 78 2.7 NNE 6 9 3 5 1009.5 1009.4 0.0
05/06:00am 25.5 28.8 22.6 84 2.0 NE 9 17 5 9 1009.3 1009.2 0.0
05/05:30am 24.9 27.3 21.6 82 2.2 ENE 11 19 6 10 1009.1 1009.0 0.0
05/05:00am 25.0 27.2 21.9 83 2.1 ENE 13 20 7 11 1008.9 1008.8 0.0
05/04:30am 25.2 26.4 21.5 80 2.5 ENE 17 28 9 15 1008.8 1008.7 0.0
05/04:00am 27.2 31.3 23.0 78 2.9 NNW 6 9 3 5 1008.3 1008.2 0.0
05/03:30am 27.6 30.8 23.0 76 3.1 NNW 11 15 6 8 1008.4 1008.3 0.0
05/03:00am 27.6 30.8 23.0 76 3.1 NNW 11 17 6 9 1008.4 1008.3 0.0
05/02:30am 27.5 30.2 22.9 76 3.1 NNW 13 19 7 10 1008.4 1008.3 0.0
05/02:00am 27.3 30.8 22.9 77 3.0 N 9 11 5 6 1008.3 1008.2 0.0
05/01:30am 26.9 30.0 22.9 79 2.7 NNW 11 15 6 8 1008.4 1008.3 0.0
05/01:00am 27.9 30.4 22.4 72 3.7 NNW 13 20 7 11 1008.6 1008.5 0.0
05/12:30am 28.2 30.3 21.7 68 4.4 NNW 13 17 7 9 1008.6 1008.5 0.0
05/12:00am 27.9 30.8 22.4 72 3.7 NW 11 17 6 9 1008.6 1008.5 0.0
 
Date/Time
WST
Temp
°C
App
Temp
°C
Dew
Point
°C
Rel
Hum
%
Delta-T
°C
Wind Press
QNH
hPa
Press
MSL
hPa
Rain since
9am
mm
Dir  Spd
km/h
Gust
km/h
Spd
kts
Gust
kts
04/11:30pm 28.0 31.3 22.5 72 3.7 NW 9 13 5 7 1008.8 1008.7 0.0
04/11:00pm 28.1 31.1 22.6 72 3.7 NW 11 17 6 9 1008.9 1008.8 0.0
04/10:30pm 28.1 30.8 22.8 73 3.6 WNW 13 15 7 8 1008.9 1008.8 0.0
04/10:00pm 28.2 31.2 22.7 72 3.7 NW 11 15 6 8 1009.1 1009.0 0.0
04/09:30pm 28.2 31.1 23.1 74 3.5 WNW 13 19 7 10 1008.9 1008.8 0.0
04/09:00pm 28.3 30.8 23.2 74 3.5 WNW 15 22 8 12 1008.8 1008.7 0.0
04/08:30pm 28.4 30.5 23.1 73 3.6 WNW 17 24 9 13 1008.7 1008.6 0.0
04/08:00pm 28.5 31.4 23.2 73 3.6 WNW 13 22 7 12 1008.4 1008.3 0.0
04/07:30pm 28.6 31.2 23.3 73 3.6 WNW 15 22 8 12 1008.0 1007.9 0.0
04/07:00pm 28.7 30.7 22.9 71 4.0 WNW 17 24 9 13 1007.7 1007.6 0.0
04/06:30pm 28.9 30.9 22.9 70 4.1 WNW 17 26 9 14 1007.2 1007.1 0.0
04/06:00pm 29.2 30.8 23.2 70 4.1 WNW 20 30 11 16 1006.7 1006.6 0.0
04/05:30pm 29.5 30.7 23.2 69 4.3 WNW 22 32 12 17 1006.3 1006.2 0.0
04/05:00pm 30.3 31.2 22.7 64 5.2 WNW 22 30 12 16 1006.1 1006.0 0.0
04/04:30pm 30.6 31.4 22.5 62 5.5 W 22 33 12 18 1006.1 1006.0 0.0
04/04:00pm 29.9 30.6 22.9 66 4.8 WNW 24 35 13 19 1006.2 1006.1 0.0
04/03:30pm 30.2 30.7 22.6 63 5.2 WNW 24 35 13 19 1006.3 1006.2 0.0
04/03:00pm 31.2 31.8 22.8 61 5.8 WNW 24 35 13 19 1006.6 1006.5 0.0
04/02:30pm 33.0 33.2 22.7 54 7.1 WNW 26 39 14 21 1006.7 1006.6 0.0
04/02:00pm 32.8 33.1 22.3 54 7.2 WNW 24 35 13 19 1006.8 1006.7 0.0
04/01:30pm 33.7 33.8 21.8 49 8.1 WNW 24 35 13 19 1007.0 1006.9 0.0
04/01:00pm 32.9 33.7 22.4 54 7.2 WNW 22 32 12 17 1007.3 1007.2 0.0
04/12:30pm 31.9 32.6 22.3 56 6.5 WNW 22 35 12 19 1007.8 1007.7 0.0
04/12:00pm 33.1 33.4 22.2 52 7.5 NW 24 39 13 21 1008.1 1008.0 0.0
04/11:30am 32.4 33.2 23.1 58 6.4 NW 24 39 13 21 1008.4 1008.3 0.0
04/11:00am 31.4 31.1 21.8 56 6.5 NW 26 35 14 19 1008.6 1008.5 0.0
04/10:30am 32.1 32.9 22.5 57 6.6 NW 22 32 12 17 1008.7 1008.6 0.0
04/10:00am 32.0 33.2 22.1 55 6.7 NW 19 33 10 18 1008.9 1008.8 0.0
04/09:30am 31.0 32.5 22.0 58 6.1 NW 17 28 9 15 1009.0 1008.9 0.0
04/09:00am 31.5 33.3 22.5 59 6.2 WNW 17 22 9 12 1009.0 1008.9 0.0
04/08:30am 31.1 32.7 22.1 58 6.1 WNW 17 24 9 13 1009.1 1009.0 0.0
04/08:00am 30.7 32.5 22.6 62 5.5 WNW 17 24 9 13 1009.0 1008.9 0.0
04/07:30am 29.7 31.8 22.4 65 5.0 W 15 20 8 11 1008.9 1008.8 0.0
04/07:00am 28.6 31.7 22.8 71 4.0 W 11 17 6 9 1009.1 1009.0 0.0
04/06:30am 28.2 31.6 22.7 72 3.7 WSW 9 13 5 7 1009.1 1009.0 0.0
04/06:00am 27.1 30.8 22.5 76 3.1 W 7 11 4 6 1008.7 1008.6 0.0
04/05:30am 26.5 30.1 22.3 78 2.8 WSW 7 9 4 5 1008.6 1008.5 0.0
04/05:00am 26.7 29.9 22.3 77 3.0 WSW 9 13 5 7 1008.2 1008.1 0.0
04/04:30am 26.9 29.9 22.7 78 2.8 W 11 15 6 8 1008.0 1007.9 0.0
04/04:00am 26.9 29.4 22.5 77 3.0 W 13 17 7 9 1007.7 1007.6 0.0
04/03:30am 26.9 29.7 22.3 76 3.1 WNW 11 15 6 8 1007.6 1007.5 0.0
04/03:00am 27.3 29.6 22.7 76 3.1 WNW 15 24 8 13 1007.6 1007.5 0.0
04/02:30am 27.2 30.3 22.8 77 3.0 WNW 11 17 6 9 1007.6 1007.5 0.0
04/02:00am 27.2 30.3 22.8 77 3.0 WNW 11 17 6 9 1007.8 1007.7 0.0
04/01:30am 27.4 30.1 22.8 76 3.1 WNW 13 19 7 10 1007.7 1007.6 0.0
04/01:00am 27.5 29.9 22.9 76 3.1 WNW 15 20 8 11 1007.8 1007.7 0.0
04/12:30am 27.6 30.5 23.2 77 3.0 WNW 13 20 7 11 1008.1 1008.0 0.0
04/12:00am 27.6 30.5 23.2 77 3.0 WNW 13 20 7 11 1008.1 1008.0 0.0
 
Date/Time
WST
Temp
°C
App
Temp
°C
Dew
Point
°C
Rel
Hum
%
Delta-T
°C
Wind Press
QNH
hPa
Press
MSL
hPa
Rain since
9am
mm
Dir  Spd
km/h
Gust
km/h
Spd
kts
Gust
kts
03/11:30pm 27.6 29.6 23.0 76 3.1 W 17 26 9 14 1008.1 1008.0 0.0
03/11:00pm 27.5 29.6 23.1 77 3.0 WNW 17 22 9 12 1008.3 1008.2 0.0
03/10:30pm 27.6 30.0 23.0 76 3.1 WNW 15 22 8 12 1008.4 1008.3 0.0
03/10:00pm 27.4 30.1 22.8 76 3.1 NW 13 17 7 9 1008.7 1008.6 0.0
03/09:30pm 27.3 30.0 22.9 77 3.0 WNW 13 19 7 10 1008.7 1008.6 0.0
03/09:00pm 27.5 30.0 23.1 77 3.0 WNW 15 24 8 13 1008.3 1008.2 0.0
03/08:30pm 27.6 30.0 23.0 76 3.1 WNW 15 20 8 11 1008.1 1008.0 0.0
03/08:00pm 27.5 30.1 22.7 75 3.3 NW 13 19 7 10 1008.0 1007.9 0.0
03/07:30pm 27.7 30.3 22.6 74 3.5 NW 13 19 7 10 1007.5 1007.4 0.0
03/07:00pm 27.9 30.5 22.6 73 3.6 NW 13 19 7 10 1007.4 1007.3 0.0
03/06:30pm 28.2 29.9 22.4 71 3.9 NW 17 24 9 13 1007.1 1007.0 0.0
03/06:00pm 28.6 29.6 22.1 68 4.4 NW 20 32 11 17 1006.7 1006.6 0.0
03/05:30pm 29.7 30.5 22.4 65 5.0 NW 22 30 12 16 1006.5 1006.4 0.0
03/05:00pm 30.4 30.5 20.3 54 6.7 WNW 20 28 11 15 1006.2 1006.1 0.0
03/04:30pm 31.1 31.3 21.3 56 6.6 WNW 22 35 12 19 1006.0 1005.9 0.0
03/04:00pm 31.3 31.1 22.0 57 6.3 WNW 26 37 14 20 1006.0 1005.9 0.0
03/03:30pm 31.8 32.4 21.3 53 7.1 NW 20 35 11 19 1006.2 1006.1 0.0
03/03:00pm 31.8 32.0 21.3 53 7.1 NW 22 35 12 19 1006.7 1006.6 0.0
03/02:30pm 32.0 31.8 21.2 52 7.3 NW 24 35 13 19 1007.2 1007.1 0.0
03/02:00pm 32.4 30.6 17.8 41 9.4 NW 24 35 13 19 1007.3 1007.2 0.0
03/01:30pm 33.1 33.5 20.9 48 8.2 NW 20 35 11 19 1007.1 1007.0 0.0
03/01:00pm 32.7 32.0 19.6 46 8.7 NW 22 35 12 19 1007.6 1007.5 0.0
03/12:30pm 33.4 33.4 20.2 46 8.8 NNW 20 32 11 17 1007.8 1007.7 0.0
03/12:00pm 32.8 33.7 21.6 51 7.6 NW 19 28 10 15 1007.9 1007.8 0.0
03/11:30am 32.7 33.4 21.5 51 7.6 NW 20 30 11 16 1008.1 1008.0 0.0
03/11:00am 32.8 33.7 21.6 51 7.6 NW 19 30 10 16 1007.9 1007.8 0.0
03/10:30am 32.3 33.7 21.8 54 7.1 NW 17 24 9 13 1008.2 1008.1 0.0
03/10:00am 32.2 34.0 22.6 57 6.6 NW 17 26 9 14 1008.5 1008.4 0.0
03/09:30am 31.9 33.7 22.6 58 6.4 NW 17 26 9 14 1008.6 1008.5 0.0
03/09:00am 31.3 33.1 22.6 60 6.0 NW 17 24 9 13 1008.6 1008.5 0.0
03/08:30am 30.8 33.1 22.7 62 5.5 NW 15 24 8 13 1008.3 1008.2 0.0
03/08:00am 29.4 31.9 23.1 69 4.3 NW 15 20 8 11 1008.0 1007.9 0.0
03/07:30am 30.0 32.4 22.9 65 4.9 NNW 15 24 8 13 1007.8 1007.7 0.0
03/07:00am 29.3 32.7 23.3 70 4.1 WNW 11 15 6 8 1007.7 1007.6 0.0
03/06:30am 27.0 32.7 23.7 82 2.3 CALM 0 2 0 1 1007.7 1007.6 0.0
03/06:00am 24.7 28.8 22.9 90 1.2 ENE 6 7 3 4 1007.6 1007.5 0.0
03/05:30am 23.7 27.3 22.0 90 1.1 E 6 9 3 5 1007.1 1007.0 0.0
03/05:00am 24.2 27.9 22.5 90 1.1 ESE 7 9 4 5 1006.8 1006.7 0.0
03/04:30am 24.1 28.2 22.2 89 1.3 S 4 7 2 4 1006.4 1006.3 0.0
03/04:00am 24.1 28.8 22.0 88 1.4 CALM 0 0 0 0 1006.4 1006.3 0.0
03/03:30am 24.9 29.7 22.8 88 1.4 ENE 2 6 1 3 1006.6 1006.5 0.0
03/03:00am 25.0 29.0 22.7 87 1.6 NE 6 9 3 5 1006.7 1006.6 0.0
03/02:30am 25.4 30.2 22.9 86 1.7 NE 2 6 1 3 1006.5 1006.4 0.0
03/02:00am 25.8 29.8 23.1 85 1.8 SW 7 9 4 5 1006.4 1006.3 0.0
03/01:30am 26.5 30.6 23.2 82 2.2 W 7 13 4 7 1006.2 1006.1 0.0
03/01:00am 26.8 30.6 23.5 82 2.3 WNW 9 13 5 7 1006.4 1006.3 0.0
03/12:30am 27.0 31.0 23.7 82 2.3 WNW 9 13 5 7 1006.5 1006.4 0.0
03/12:00am 27.0 31.0 23.7 82 2.3 NW 9 13 5 7 1006.8 1006.7 0.0
 
Date/Time
WST
Temp
°C
App
Temp
°C
Dew
Point
°C
Rel
Hum
%
Delta-T
°C
Wind Press
QNH
hPa
Press
MSL
hPa
Rain since
9am
mm
Dir  Spd
km/h
Gust
km/h
Spd
kts
Gust
kts
02/11:30pm 27.3 30.8 23.5 80 2.6 WNW 11 15 6 8 1006.9 1006.8 0.0
02/11:00pm 27.4 31.2 23.4 79 2.7 WNW 9 15 5 8 1007.2 1007.1 0.0

Other Formats:

Comma delimited format used in spreadsheet applications
http://www.bom.gov.au/fwo/IDW60801/IDW60801.94200.axf

JavaScript Object Notation format (JSON) in row-major order
http://www.bom.gov.au/fwo/IDW60801/IDW60801.94200.json